Time;durP1;ratioP1;P1;durP2;ratioP2;P2;SDS_P1;SDS_P2;PMS_P1;PMS_P2;Temp;Humidity;BMP_temperature;BMP_pressure;BME280_temperature;BME280_humidity;BME280_pressure;Samples;Min_cycle;Max_cycle;Signal;HPM_P1;HPM_P2
2022/04/10 00:01:02;;;;;;;3.03;1.77;;;17.80;90.70;;;;;;4233925;28;20209;-76
2022/04/10 00:03:05;;;;;;;3.42;2.10;;;17.80;90.80;;;;;;4245579;28;20258;-75
2022/04/10 00:05:08;;;;;;;2.65;1.55;;;17.80;90.60;;;;;;4246340;28;20213;-76
2022/04/10 00:07:11;;;;;;;2.80;1.70;;;17.80;90.60;;;;;;4246290;28;20213;-76
2022/04/10 00:09:13;;;;;;;2.30;1.60;;;17.80;90.60;;;;;;4246087;28;20560;-76
2022/04/10 00:11:16;;;;;;;3.70;1.90;;;17.80;90.70;;;;;;4246167;28;20205;-76
2022/04/10 00:13:20;;;;;;;2.42;1.70;;;17.80;90.60;;;;;;4246389;28;20218;-76
2022/04/10 00:15:22;;;;;;;2.25;1.38;;;17.80;90.60;;;;;;4245983;28;20205;-76
2022/04/10 00:17:24;;;;;;;3.08;1.65;;;17.80;90.60;;;;;;4238881;28;20614;-75
2022/04/10 00:19:27;;;;;;;2.55;1.42;;;17.80;90.60;;;;;;4246458;28;20238;-75
2022/04/10 00:21:29;;;;;;;2.33;1.70;;;17.80;90.60;;;;;;4245700;28;20209;-76
2022/04/10 00:23:32;;;;;;;3.28;1.67;;;17.80;90.80;;;;;;4246297;28;20967;-76
2022/04/10 00:25:34;;;;;;;2.75;1.58;;;17.80;90.60;;;;;;4246296;28;20250;-76
2022/04/10 00:27:36;;;;;;;2.75;1.65;;;17.80;90.60;;;;;;4244591;28;20262;-76
2022/04/10 00:29:40;;;;;;;2.63;1.30;;;17.80;90.60;;;;;;4246068;28;20699;-76
2022/04/10 00:31:42;;;;;;;3.35;1.80;;;17.80;90.60;;;;;;4245745;28;20205;-76
2022/04/10 00:33:45;;;;;;;2.22;1.48;;;17.80;90.60;;;;;;4240024;28;20225;-75
2022/04/10 00:35:47;;;;;;;2.22;1.83;;;17.80;90.60;;;;;;4246604;27;20617;-76
2022/04/10 00:37:49;;;;;;;2.78;1.80;;;17.80;90.80;;;;;;4248956;27;20661;-76
2022/04/10 00:39:52;;;;;;;4.43;1.63;;;17.80;90.60;;;;;;4248845;27;20246;-76
2022/04/10 00:41:54;;;;;;;2.65;1.70;;;17.80;90.60;;;;;;4248901;27;20593;-76
2022/04/10 00:44:03;;;;;;;1.75;1.42;;;17.80;90.80;;;;;;4248916;27;20258;-76
2022/04/10 00:46:07;;;;;;;2.47;1.35;;;17.80;90.50;;;;;;4242516;27;20221;-76
2022/04/10 00:48:10;;;;;;;2.28;1.38;;;17.80;90.60;;;;;;4245447;27;20776;-76
2022/04/10 00:50:18;;;;;;;2.10;1.60;;;17.80;90.50;;;;;;4244889;27;20271;-76
2022/04/10 00:52:21;;;;;;;2.95;1.58;;;17.80;90.70;;;;;;4242799;27;20258;-76
2022/04/10 00:54:25;;;;;;;3.17;1.92;;;17.80;90.60;;;;;;4233393;27;20715;-77
2022/04/10 00:56:28;;;;;;;2.50;1.58;;;17.70;90.50;;;;;;4248531;27;20201;-76
2022/04/10 00:58:31;;;;;;;2.33;1.33;;;17.70;90.50;;;;;;4248575;27;20253;-76
2022/04/10 01:00:33;;;;;;;2.33;1.42;;;17.70;90.60;;;;;;4248722;27;20225;-76
2022/04/10 01:02:37;;;;;;;2.15;1.40;;;17.70;90.60;;;;;;4232639;27;20604;-76
2022/04/10 01:04:39;;;;;;;2.97;1.50;;;17.70;90.60;;;;;;4248289;27;20289;-76
2022/04/10 01:06:43;;;;;;;2.33;1.58;;;17.70;90.60;;;;;;4248152;27;20265;-76
2022/04/10 01:08:45;;;;;;;3.85;2.13;;;17.70;90.60;;;;;;4233357;27;20302;-76
2022/04/10 01:10:48;;;;;;;2.30;1.55;;;17.70;90.50;;;;;;4248386;27;20216;-76
2022/04/10 01:12:50;;;;;;;1.95;1.40;;;17.70;90.60;;;;;;4248570;27;20209;-76
2022/04/10 01:14:53;;;;;;;3.22;1.52;;;17.70;90.60;;;;;;4248381;27;20617;-76
2022/04/10 01:16:55;;;;;;;3.53;1.67;;;17.70;90.50;;;;;;4248557;27;20258;-76
2022/04/10 01:19:01;;;;;;;3.70;1.83;;;17.70;90.60;;;;;;4248373;27;20205;-75
2022/04/10 01:21:04;;;;;;;3.47;1.73;;;17.70;90.50;;;;;;4248442;27;20604;-76
2022/04/10 01:23:09;;;;;;;3.13;1.60;;;17.70;90.60;;;;;;4248089;27;20201;-76
2022/04/10 01:25:11;;;;;;;2.95;1.67;;;17.70;90.60;;;;;;4241442;27;20242;-76
2022/04/10 01:27:14;;;;;;;3.55;1.70;;;17.70;90.60;;;;;;4248275;27;20324;-76
2022/04/10 01:29:16;;;;;;;2.80;1.38;;;17.70;90.60;;;;;;4248265;27;20626;-76
2022/04/10 01:31:18;;;;;;;2.58;1.70;;;17.70;90.60;;;;;;4247956;27;20209;-76
2022/04/10 01:33:20;;;;;;;3.42;1.60;;;17.70;90.60;;;;;;4247492;27;20205;-76
2022/04/10 01:35:26;;;;;;;3.65;1.50;;;17.70;90.50;;;;;;4247788;27;20197;-76
2022/04/10 01:37:31;;;;;;;2.10;1.40;;;17.60;90.50;;;;;;4247824;27;20250;-76
2022/04/10 01:39:35;;;;;;;2.58;1.60;;;17.70;90.50;;;;;;4247717;27;20247;-76
2022/04/10 01:41:37;;;;;;;3.20;1.75;;;17.60;90.40;;;;;;4240215;27;20210;-76
2022/04/10 01:43:45;;;;;;;2.38;1.45;;;17.60;90.50;;;;;;4236433;27;20270;-76
2022/04/10 01:45:47;;;;;;;2.30;1.65;;;17.60;90.50;;;;;;4238672;27;20714;-76
2022/04/10 01:47:51;;;;;;;3.22;1.83;;;17.60;90.50;;;;;;4233457;27;20638;-76
2022/04/10 01:49:54;;;;;;;2.90;1.73;;;17.60;90.50;;;;;;4242801;27;20258;-76
2022/04/10 01:51:56;;;;;;;1.83;1.55;;;17.60;90.50;;;;;;4247686;27;20286;-76
2022/04/10 01:53:59;;;;;;;3.05;1.50;;;17.60;90.50;;;;;;4236768;27;20218;-76
2022/04/10 01:56:02;;;;;;;3.25;1.60;;;17.60;90.50;;;;;;4243988;27;20193;-76
2022/04/10 01:58:05;;;;;;;2.42;1.67;;;17.60;90.40;;;;;;4244195;27;20255;-76
2022/04/10 02:00:08;;;;;;;2.33;1.60;;;17.60;90.50;;;;;;4244874;27;20955;-76
2022/04/10 02:02:10;;;;;;;2.85;1.83;;;17.60;90.50;;;;;;4247594;27;20661;-76
2022/04/10 02:04:13;;;;;;;3.85;1.50;;;17.60;90.50;;;;;;4247381;27;20606;-76
2022/04/10 02:06:16;;;;;;;2.15;1.60;;;17.60;90.50;;;;;;4247143;27;20209;-76
2022/04/10 02:08:18;;;;;;;2.55;1.60;;;17.60;90.40;;;;;;4247719;27;20277;-76
2022/04/10 02:10:21;;;;;;;2.78;1.83;;;17.60;90.60;;;;;;4247052;27;20310;-76
2022/04/10 02:12:24;;;;;;;3.35;1.73;;;17.60;90.50;;;;;;4247054;27;20266;-76
2022/04/10 02:14:27;;;;;;;2.88;1.60;;;17.60;90.50;;;;;;4247422;27;20347;-76
2022/04/10 02:16:29;;;;;;;2.75;1.73;;;17.50;90.40;;;;;;4232035;27;20282;-76
2022/04/10 02:18:31;;;;;;;2.95;1.70;;;17.50;90.40;;;;;;4230399;28;20243;-76
2022/04/10 02:20:34;;;;;;;2.38;1.65;;;17.60;90.40;;;;;;4247008;27;20209;-76
2022/04/10 02:22:36;;;;;;;2.55;1.65;;;17.60;90.50;;;;;;4246997;27;20217;-76
2022/04/10 02:24:38;;;;;;;2.42;1.60;;;17.50;90.40;;;;;;4246949;27;20220;-76
2022/04/10 02:26:41;;;;;;;2.60;1.55;;;17.50;90.40;;;;;;4247246;27;20332;-76
2022/04/10 02:28:44;;;;;;;3.17;1.80;;;17.50;90.40;;;;;;4246711;27;20213;-76
2022/04/10 02:30:47;;;;;;;3.58;1.85;;;17.50;90.40;;;;;;4247122;27;20631;-76
2022/04/10 02:32:49;;;;;;;2.78;2.05;;;17.50;90.40;;;;;;4239858;27;20221;-76
2022/04/10 02:34:51;;;;;;;2.58;1.67;;;17.50;90.50;;;;;;4246996;27;20289;-76
2022/04/10 02:36:54;;;;;;;3.17;1.55;;;17.50;90.40;;;;;;4247083;27;20970;-76
2022/04/10 02:38:56;;;;;;;2.67;1.52;;;17.50;90.40;;;;;;4247907;27;20579;-76
2022/04/10 02:40:58;;;;;;;3.05;1.80;;;17.50;90.80;;;;;;4246876;27;20250;-76
2022/04/10 02:43:00;;;;;;;2.50;1.58;;;17.50;90.50;;;;;;4234172;27;20214;-76
2022/04/10 02:45:05;;;;;;;2.35;1.50;;;17.50;90.40;;;;;;4234428;27;20234;-76
2022/04/10 02:47:08;;;;;;;2.72;1.75;;;17.50;90.40;;;;;;4246867;27;20209;-76
2022/04/10 02:49:11;;;;;;;3.15;1.60;;;17.50;90.40;;;;;;4242536;27;20222;-76
2022/04/10 02:51:13;;;;;;;3.15;1.60;;;17.50;90.40;;;;;;4236363;27;20209;-76
2022/04/10 02:53:15;;;;;;;3.03;2.10;;;17.50;90.40;;;;;;4242416;27;20564;-76
2022/04/10 02:55:17;;;;;;;3.78;1.98;;;17.40;90.40;;;;;;4236529;27;20622;-76
2022/04/10 02:57:20;;;;;;;2.90;1.70;;;17.40;90.40;;;;;;4246431;27;20292;-76
2022/04/10 02:59:22;;;;;;;3.28;1.80;;;17.50;90.50;;;;;;4246408;27;20196;-76
2022/04/10 03:01:26;;;;;;;3.95;1.77;;;17.50;90.40;;;;;;4246568;27;20209;-76
2022/04/10 03:03:28;;;;;;;2.67;1.70;;;17.50;90.40;;;;;;4246827;27;20266;-76
2022/04/10 03:05:31;;;;;;;2.58;1.58;;;17.50;90.40;;;;;;4247169;27;20251;-76
2022/04/10 03:07:33;;;;;;;3.08;1.63;;;17.50;90.50;;;;;;4239586;27;20209;-76
2022/04/10 03:09:35;;;;;;;4.53;2.25;;;17.50;90.40;;;;;;4246257;27;20225;-76
2022/04/10 03:11:37;;;;;;;2.55;1.60;;;17.40;90.40;;;;;;4246681;27;20614;-76
2022/04/10 03:13:40;;;;;;;2.58;1.73;;;17.40;90.40;;;;;;4246762;27;20253;-76
2022/04/10 03:15:42;;;;;;;2.90;1.90;;;17.40;90.40;;;;;;4246655;27;20205;-76
2022/04/10 03:17:49;;;;;;;3.70;2.13;;;17.40;90.40;;;;;;4246665;27;20671;-76
2022/04/10 03:19:51;;;;;;;3.55;1.98;;;17.40;90.80;;;;;;4246710;27;20260;-76
2022/04/10 03:21:53;;;;;;;3.17;1.77;;;17.40;90.40;;;;;;4246115;27;20213;-76
2022/04/10 03:23:55;;;;;;;2.85;1.75;;;17.40;90.40;;;;;;4236260;27;20225;-76
2022/04/10 03:25:58;;;;;;;2.45;1.80;;;17.40;90.40;;;;;;4242117;27;20221;-76
2022/04/10 03:28:00;;;;;;;2.40;1.75;;;17.40;90.30;;;;;;4246467;28;20205;-76
2022/04/10 03:30:04;;;;;;;2.80;1.55;;;17.40;90.30;;;;;;4246572;28;20233;-76
2022/04/10 03:32:07;;;;;;;3.40;1.90;;;17.40;90.40;;;;;;4246882;28;20270;-76
2022/04/10 03:34:11;;;;;;;3.17;1.90;;;17.40;90.40;;;;;;4246203;28;20229;-76
2022/04/10 03:36:14;;;;;;;2.55;1.60;;;17.40;90.40;;;;;;4242902;28;20209;-76
2022/04/10 03:38:16;;;;;;;3.30;1.85;;;17.30;90.40;;;;;;4246443;28;20217;-76
2022/04/10 03:40:18;;;;;;;3.35;1.83;;;17.40;90.40;;;;;;4240609;28;20263;-76
2022/04/10 03:42:21;;;;;;;3.50;1.98;;;17.40;90.40;;;;;;4236480;28;20247;-76
2022/04/10 03:44:23;;;;;;;3.40;1.80;;;17.30;90.70;;;;;;4245429;28;20213;-76
2022/04/10 03:46:25;;;;;;;3.03;1.90;;;17.30;90.70;;;;;;4246265;28;20209;-76
2022/04/10 03:48:27;;;;;;;3.03;1.90;;;17.30;90.40;;;;;;4246130;28;20209;-76
2022/04/10 03:50:32;;;;;;;2.45;1.70;;;17.40;90.40;;;;;;4246683;28;20240;-76
2022/04/10 03:52:35;;;;;;;2.78;2.05;;;17.40;90.40;;;;;;4246262;28;20265;-76
2022/04/10 03:54:37;;;;;;;3.38;1.65;;;17.40;90.40;;;;;;4245797;28;20217;-76
2022/04/10 03:56:40;;;;;;;2.67;1.80;;;17.30;90.40;;;;;;4246272;28;20789;-76
2022/04/10 03:58:42;;;;;;;3.00;1.70;;;17.40;90.40;;;;;;4231134;28;20226;-76
2022/04/10 04:00:46;;;;;;;3.08;1.70;;;17.30;90.30;;;;;;4245915;28;20213;-76
2022/04/10 04:02:48;;;;;;;2.72;1.70;;;17.30;90.40;;;;;;4245894;28;20221;-76
2022/04/10 04:04:51;;;;;;;4.70;1.65;;;17.30;90.40;;;;;;4245842;28;20274;-76
2022/04/10 04:06:55;;;;;;;4.18;2.08;;;17.30;90.30;;;;;;4245872;28;20670;-76
2022/04/10 04:08:57;;;;;;;2.78;1.90;;;17.30;90.40;;;;;;4246131;28;20293;-76
2022/04/10 04:10:59;;;;;;;4.00;1.77;;;17.30;90.40;;;;;;4246960;27;20306;-76
2022/04/10 04:13:02;;;;;;;2.60;2.00;;;17.30;90.40;;;;;;4249352;27;20209;-76
2022/04/10 04:15:05;;;;;;;3.42;2.10;;;17.30;90.40;;;;;;4242059;27;20205;-76
2022/04/10 04:17:07;;;;;;;3.17;2.15;;;17.30;90.40;;;;;;4248753;27;20675;-75
2022/04/10 04:19:10;;;;;;;3.92;2.03;;;17.30;90.30;;;;;;4248649;27;20201;-76
2022/04/10 04:21:12;;;;;;;3.55;1.70;;;17.30;90.30;;;;;;4249296;27;20254;-76
2022/04/10 04:23:17;;;;;;;2.70;1.80;;;17.30;90.50;;;;;;4249618;27;20258;-76
2022/04/10 04:25:20;;;;;;;3.70;1.90;;;17.30;90.30;;;;;;4249613;27;20657;-76
2022/04/10 04:27:22;;;;;;;3.00;1.70;;;17.30;90.30;;;;;;4249253;27;20653;-76
2022/04/10 04:29:24;;;;;;;2.95;1.75;;;17.30;90.40;;;;;;4249111;27;20205;-76
2022/04/10 04:31:27;;;;;;;4.63;1.98;;;17.30;90.40;;;;;;4242361;27;20287;-76
2022/04/10 04:33:29;;;;;;;2.55;1.80;;;17.30;90.40;;;;;;4239284;27;20205;-76
2022/04/10 04:35:31;;;;;;;2.80;1.80;;;17.30;90.40;;;;;;4245401;27;20866;-76
2022/04/10 04:37:40;;;;;;;3.53;1.98;;;17.20;90.30;;;;;;4249478;27;20205;-76
2022/04/10 04:39:43;;;;;;;3.35;2.00;;;17.30;90.40;;;;;;4248503;27;20213;-76
2022/04/10 04:41:46;;;;;;;3.00;2.00;;;17.30;90.40;;;;;;4248244;27;20213;-76
2022/04/10 04:43:49;;;;;;;3.65;1.48;;;17.30;90.40;;;;;;4248559;27;20340;-76
2022/04/10 04:45:51;;;;;;;4.45;2.10;;;17.30;90.30;;;;;;4248792;27;20205;-76
2022/04/10 04:47:54;;;;;;;2.92;1.80;;;17.20;90.30;;;;;;4247364;27;20273;-76
2022/04/10 04:49:56;;;;;;;5.15;2.10;;;17.30;90.30;;;;;;4244098;27;20213;-76
2022/04/10 04:51:59;;;;;;;4.20;2.10;;;17.20;90.30;;;;;;4248898;27;20229;-76
2022/04/10 04:54:01;;;;;;;3.53;1.80;;;17.20;90.40;;;;;;4248715;27;20239;-76
2022/04/10 04:56:06;;;;;;;3.78;1.92;;;17.20;90.30;;;;;;4248972;27;20209;-76
2022/04/10 04:58:08;;;;;;;4.47;2.25;;;17.20;90.30;;;;;;4248370;27;20217;-76
2022/04/10 05:00:11;;;;;;;2.53;1.90;;;17.20;90.30;;;;;;4248385;27;20259;-76
2022/04/10 05:02:14;;;;;;;4.35;1.80;;;17.20;90.30;;;;;;4248339;27;20262;-76
2022/04/10 05:04:16;;;;;;;3.97;2.28;;;17.20;90.30;;;;;;4248634;27;20258;-76
2022/04/10 05:06:19;;;;;;;2.70;1.80;;;17.20;90.30;;;;;;4234701;27;20275;-76
2022/04/10 05:08:21;;;;;;;3.17;1.88;;;17.20;90.30;;;;;;4247381;27;20212;-76
2022/04/10 05:10:23;;;;;;;2.95;1.90;;;17.20;90.30;;;;;;4248334;27;20285;-76
2022/04/10 05:12:28;;;;;;;2.35;1.75;;;17.20;90.30;;;;;;4248457;27;20220;-76
2022/04/10 05:14:30;;;;;;;2.65;1.77;;;17.20;90.30;;;;;;4248221;27;20242;-76
2022/04/10 05:16:32;;;;;;;3.25;1.85;;;17.20;90.30;;;;;;4248281;27;20217;-76
2022/04/10 05:18:35;;;;;;;2.92;1.80;;;17.20;90.30;;;;;;4248624;27;20247;-76
2022/04/10 05:20:38;;;;;;;4.00;2.05;;;17.20;90.40;;;;;;4248601;27;20205;-76
2022/04/10 05:22:40;;;;;;;4.25;1.85;;;17.20;90.30;;;;;;4238718;27;20222;-76
2022/04/10 05:24:43;;;;;;;3.88;1.90;;;17.20;90.30;;;;;;4246962;27;20242;-76
2022/04/10 05:26:46;;;;;;;3.15;2.15;;;17.20;90.30;;;;;;4248152;27;21141;-76
2022/04/10 05:28:49;;;;;;;2.67;1.80;;;17.20;90.30;;;;;;4248312;27;20615;-76
2022/04/10 05:30:52;;;;;;;2.75;2.10;;;17.20;90.40;;;;;;4247890;27;20274;-76
2022/04/10 05:32:54;;;;;;;3.65;1.92;;;17.20;90.30;;;;;;4248356;27;20262;-76
2022/04/10 05:34:56;;;;;;;3.25;1.77;;;17.20;90.40;;;;;;4234830;27;20277;-76
2022/04/10 05:36:58;;;;;;;1.92;1.60;;;17.20;90.40;;;;;;4247879;27;20205;-76
2022/04/10 05:39:01;;;;;;;3.28;1.80;;;17.20;90.40;;;;;;4244918;27;20243;-76
2022/04/10 05:41:03;;;;;;;4.03;2.08;;;17.20;90.40;;;;;;4235887;27;20209;-76
2022/04/10 05:43:06;;;;;;;3.17;1.80;;;17.20;90.50;;;;;;4248128;27;20709;-76
2022/04/10 05:45:10;;;;;;;4.70;2.20;;;17.20;90.50;;;;;;4248143;27;20246;-76
2022/04/10 05:47:12;;;;;;;3.72;2.00;;;17.20;90.50;;;;;;4247962;27;20649;-76
2022/04/10 05:49:16;;;;;;;2.97;1.67;;;17.20;90.50;;;;;;4248033;27;20677;-76
2022/04/10 05:51:18;;;;;;;3.30;1.92;;;17.20;90.50;;;;;;4247867;27;20228;-76
2022/04/10 05:53:21;;;;;;;3.40;1.90;;;17.20;90.50;;;;;;4248088;27;20258;-76
2022/04/10 05:55:24;;;;;;;2.97;2.20;;;17.20;90.50;;;;;;4247387;27;20213;-76
2022/04/10 05:57:27;;;;;;;2.85;1.80;;;17.20;90.50;;;;;;4240587;27;20271;-76
2022/04/10 05:59:29;;;;;;;2.78;1.90;;;17.20;90.60;;;;;;4248020;27;20210;-76
2022/04/10 06:01:33;;;;;;;3.17;1.80;;;17.20;90.60;;;;;;4247287;27;20213;-76
2022/04/10 06:03:35;;;;;;;3.42;2.25;;;17.20;90.70;;;;;;4247486;27;20594;-76
2022/04/10 06:05:37;;;;;;;3.10;1.98;;;17.20;90.70;;;;;;4247374;27;20734;-76
2022/04/10 06:07:40;;;;;;;3.60;2.15;;;17.20;90.60;;;;;;4247398;27;20205;-76
2022/04/10 06:09:42;;;;;;;3.35;1.95;;;17.20;90.70;;;;;;4247416;27;20665;-73
2022/04/10 06:11:44;;;;;;;3.78;1.90;;;17.20;90.70;;;;;;4247216;27;20268;-73
2022/04/10 06:13:47;;;;;;;3.00;2.20;;;17.20;90.70;;;;;;4232601;27;20258;-73
2022/04/10 06:15:49;;;;;;;3.58;1.90;;;17.30;90.80;;;;;;4241597;27;20205;-73
2022/04/10 06:17:53;;;;;;;3.28;2.13;;;17.20;90.70;;;;;;4247376;27;20209;-73
2022/04/10 06:19:55;;;;;;;3.95;2.10;;;17.20;90.60;;;;;;4247547;27;20220;-73
2022/04/10 06:21:57;;;;;;;2.80;1.65;;;17.20;90.70;;;;;;4247528;27;20209;-73
2022/04/10 06:23:59;;;;;;;2.63;1.70;;;17.30;90.80;;;;;;4246780;27;20213;-73
2022/04/10 06:26:02;;;;;;;3.75;1.90;;;17.20;90.70;;;;;;4247559;27;20644;-73
2022/04/10 06:28:04;;;;;;;3.85;1.98;;;17.20;90.70;;;;;;4247671;27;20254;-73
2022/04/10 06:30:07;;;;;;;3.65;1.98;;;17.20;90.60;;;;;;4243652;27;20274;-73
2022/04/10 06:32:09;;;;;;;2.97;1.83;;;17.20;90.70;;;;;;4244131;27;20761;-73
2022/04/10 06:34:13;;;;;;;3.40;2.22;;;17.30;90.70;;;;;;4246656;27;20250;-73
2022/04/10 06:36:16;;;;;;;3.40;1.92;;;17.30;90.80;;;;;;4247001;27;20266;-73
2022/04/10 06:38:18;;;;;;;4.22;1.90;;;17.20;90.70;;;;;;4247332;27;20209;-73
2022/04/10 06:40:21;;;;;;;3.55;1.70;;;17.20;90.70;;;;;;4247346;27;20220;-73
2022/04/10 06:42:24;;;;;;;3.80;1.92;;;17.30;90.70;;;;;;4246990;27;20217;-73
2022/04/10 06:44:26;;;;;;;4.90;2.22;;;17.20;90.70;;;;;;4247153;27;20209;-73
2022/04/10 06:46:29;;;;;;;3.97;1.80;;;17.20;90.70;;;;;;4247015;27;20616;-73
2022/04/10 06:48:31;;;;;;;3.28;1.75;;;17.20;90.70;;;;;;4230245;28;20229;-73
2022/04/10 06:50:35;;;;;;;3.58;2.15;;;17.20;90.70;;;;;;4247142;27;20221;-73
2022/04/10 06:52:38;;;;;;;3.05;1.75;;;17.30;90.80;;;;;;4246713;27;20274;-73
2022/04/10 06:54:40;;;;;;;3.45;2.05;;;17.20;90.70;;;;;;4246548;27;20238;-73
2022/04/10 06:56:42;;;;;;;3.97;2.05;;;17.20;90.70;;;;;;4246561;27;20669;-73
2022/04/10 06:58:45;;;;;;;3.47;2.00;;;17.30;90.80;;;;;;4246587;27;20277;-73
2022/04/10 07:00:47;;;;;;;3.60;2.03;;;17.30;90.80;;;;;;4247019;27;20224;-73
2022/04/10 07:02:49;;;;;;;2.88;2.08;;;17.30;90.80;;;;;;4246945;27;20238;-73
2022/04/10 07:04:51;;;;;;;4.40;2.20;;;17.20;90.70;;;;;;4239705;27;20729;-73
2022/04/10 07:06:55;;;;;;;3.70;2.17;;;17.20;90.70;;;;;;4246780;27;20201;-73
2022/04/10 07:08:58;;;;;;;3.15;1.70;;;17.30;90.80;;;;;;4247157;27;20201;-73
2022/04/10 07:11:00;;;;;;;3.22;1.45;;;17.30;90.80;;;;;;4243422;27;20209;-73
2022/04/10 07:13:03;;;;;;;4.53;2.10;;;17.30;90.80;;;;;;4243251;27;20225;-73
2022/04/10 07:15:06;;;;;;;2.53;1.63;;;17.20;90.70;;;;;;4246875;27;20217;-73
2022/04/10 07:17:08;;;;;;;4.28;1.88;;;17.30;90.80;;;;;;4246600;27;20305;-73
2022/04/10 07:19:10;;;;;;;3.45;1.95;;;17.30;91.20;;;;;;4246748;27;20242;-73
2022/04/10 07:21:13;;;;;;;3.35;1.75;;;17.20;90.80;;;;;;4241791;27;20206;-76
2022/04/10 07:25:36;;;;;;;4.22;2.17;;;17.20;90.80;;;;;;4247099;27;20194;-73
2022/04/10 07:27:39;;;;;;;3.45;1.90;;;17.20;90.90;;;;;;4246800;27;20534;-73
2022/04/10 07:29:41;;;;;;;4.90;1.98;;;17.20;90.80;;;;;;4246270;27;20561;-73
2022/04/10 07:31:43;;;;;;;2.75;1.88;;;17.20;91.00;;;;;;4246513;28;20269;-73
2022/04/10 07:33:46;;;;;;;3.72;1.92;;;17.20;90.80;;;;;;4246164;28;20228;-73
2022/04/10 07:35:48;;;;;;;4.03;1.88;;;17.30;90.90;;;;;;4245818;28;20250;-73
2022/04/10 07:37:50;;;;;;;5.63;2.20;;;17.30;90.90;;;;;;4245557;28;20209;-73
2022/04/10 07:39:54;;;;;;;3.78;1.67;;;17.20;90.90;;;;;;4241083;28;20657;-73
2022/04/10 07:41:56;;;;;;;2.92;1.67;;;17.20;90.90;;;;;;4245918;28;20706;-73
2022/04/10 07:43:59;;;;;;;3.20;1.75;;;17.20;90.80;;;;;;4246728;28;20344;-73
2022/04/10 07:48:21;;;;;;;3.38;1.88;;;17.20;90.90;;;;;;4250361;27;20667;-73
2022/04/10 07:50:23;;;;;;;4.20;2.15;;;17.30;90.90;;;;;;4249982;27;20269;-73
2022/04/10 07:52:26;;;;;;;4.70;2.22;;;17.20;90.80;;;;;;4249281;27;20260;-73
2022/04/10 07:54:28;;;;;;;3.85;2.13;;;17.20;90.80;;;;;;4249691;27;20669;-73
2022/04/10 07:56:32;;;;;;;5.20;2.33;;;17.20;90.90;;;;;;4234330;27;20229;-73
2022/04/10 07:58:34;;;;;;;4.38;2.50;;;17.20;90.90;;;;;;4249801;27;20216;-73
2022/04/10 08:00:37;;;;;;;3.65;2.20;;;17.20;91.00;;;;;;4249824;27;20221;-73
2022/04/10 08:02:39;;;;;;;4.00;2.00;;;17.20;90.90;;;;;;4249676;27;20213;-73
2022/04/10 08:04:41;;;;;;;3.13;2.15;;;17.30;91.00;;;;;;4249629;27;20216;-73
2022/04/10 08:06:44;;;;;;;5.47;2.30;;;17.20;90.90;;;;;;4249547;27;20702;-73
2022/04/10 08:08:46;;;;;;;4.05;2.00;;;17.20;90.90;;;;;;4249381;27;20606;-73
2022/04/10 08:10:48;;;;;;;4.10;2.40;;;17.30;91.00;;;;;;4242567;27;20221;-73
2022/04/10 08:12:52;;;;;;;4.53;2.15;;;17.30;91.00;;;;;;4241760;27;20233;-73
2022/04/10 08:14:55;;;;;;;3.75;2.03;;;17.20;91.00;;;;;;4249569;27;20217;-73
2022/04/10 08:16:57;;;;;;;4.68;1.90;;;17.30;91.00;;;;;;4249618;27;20266;-73
2022/04/10 08:18:59;;;;;;;2.80;1.80;;;17.30;91.00;;;;;;4249347;27;20213;-73
2022/04/10 08:21:01;;;;;;;4.07;1.92;;;17.30;91.00;;;;;;4249600;27;20246;-73
2022/04/10 08:23:04;;;;;;;3.75;1.67;;;17.30;91.00;;;;;;4248782;27;20254;-73
2022/04/10 08:25:09;;;;;;;2.97;1.83;;;17.30;91.00;;;;;;4249653;27;20258;-73
2022/04/10 08:27:12;;;;;;;3.13;1.80;;;17.30;91.00;;;;;;4249569;27;20258;-73
2022/04/10 08:29:15;;;;;;;4.03;2.20;;;17.30;91.00;;;;;;4247587;27;20209;-73
2022/04/10 08:31:17;;;;;;;4.30;2.22;;;17.30;91.10;;;;;;4249227;27;20205;-73
2022/04/10 08:33:20;;;;;;;4.65;2.45;;;17.30;91.00;;;;;;4249161;27;20233;-73
2022/04/10 08:35:22;;;;;;;3.65;1.77;;;17.30;91.00;;;;;;4215630;28;20236;-73
2022/04/10 08:37:24;;;;;;;4.15;1.77;;;17.30;91.10;;;;;;4215048;28;20202;-73
2022/04/10 08:39:27;;;;;;;4.35;2.03;;;17.30;91.10;;;;;;4215306;28;20255;-73
2022/04/10 08:41:33;;;;;;;3.72;1.98;;;17.30;91.10;;;;;;4215793;28;20207;-73
2022/04/10 08:43:37;;;;;;;4.70;2.42;;;17.30;91.00;;;;;;4215332;28;20256;-73
2022/04/10 08:45:40;;;;;;;3.90;2.13;;;17.30;91.10;;;;;;4215161;28;20635;-73
2022/04/10 08:47:43;;;;;;;2.67;1.73;;;17.30;91.10;;;;;;4214670;28;20229;-73
2022/04/10 08:49:45;;;;;;;5.00;2.28;;;17.30;91.10;;;;;;4214954;28;20211;-73
2022/04/10 08:51:50;;;;;;;3.55;2.00;;;17.30;91.10;;;;;;4212146;28;20211;-73
2022/04/10 08:53:54;;;;;;;4.45;2.28;;;17.30;91.10;;;;;;4209689;28;20234;-73
2022/04/10 08:55:56;;;;;;;3.42;1.95;;;17.30;91.10;;;;;;4215023;28;20275;-73
2022/04/10 08:57:59;;;;;;;3.13;1.98;;;17.40;91.10;;;;;;4206364;28;20214;-73
2022/04/10 09:00:01;;;;;;;4.38;1.90;;;17.30;91.10;;;;;;4211549;28;20268;-73
2022/04/10 09:02:05;;;;;;;4.07;2.10;;;17.40;91.20;;;;;;4214821;28;20218;-73
2022/04/10 09:04:08;;;;;;;2.80;1.98;;;17.40;91.20;;;;;;4202447;28;20260;-73
2022/04/10 09:06:12;;;;;;;3.70;1.98;;;17.40;91.20;;;;;;4212167;28;20252;-73
2022/04/10 09:08:17;;;;;;;4.18;2.28;;;17.40;91.20;;;;;;4214624;28;20214;-76
2022/04/10 09:10:19;;;;;;;2.75;1.88;;;17.40;91.30;;;;;;4214820;28;20296;-76
2022/04/10 09:12:21;;;;;;;3.20;2.03;;;17.40;91.10;;;;;;4214907;28;20214;-76
2022/04/10 09:14:24;;;;;;;5.28;2.40;;;17.40;91.10;;;;;;4214682;28;20698;-76
2022/04/10 09:16:27;;;;;;;5.40;2.15;;;17.30;91.10;;;;;;4214903;28;20652;-76
2022/04/10 09:18:46;;;;;;;4.72;2.13;;;17.40;91.20;;;;;;4198215;28;20218;-76
2022/04/10 09:21:06;;;;;;;3.78;2.08;;;17.40;91.20;;;;;;4199958;28;20261;-76
2022/04/10 09:23:10;;;;;;;5.18;2.00;;;17.40;91.10;;;;;;4214864;28;20663;-76
2022/04/10 09:25:13;;;;;;;3.47;1.92;;;17.40;91.20;;;;;;4214911;28;20639;-76
2022/04/10 09:27:29;;;;;;;3.80;1.90;;;17.40;91.30;;;;;;4214809;28;20211;-76
2022/04/10 09:29:33;;;;;;;4.32;2.10;;;17.40;91.30;;;;;;4215003;28;20223;-76
2022/04/10 09:31:36;;;;;;;4.13;1.98;;;17.40;91.20;;;;;;4214779;28;20214;-76
2022/04/10 09:33:50;;;;;;;3.28;2.00;;;17.40;91.20;;;;;;4218873;27;20287;-76
2022/04/10 09:35:52;;;;;;;6.22;2.10;;;17.40;91.30;;;;;;4247886;27;20606;-76
2022/04/10 09:37:56;;;;;;;3.83;2.00;;;17.50;91.30;;;;;;4237895;27;20271;-76
2022/04/10 09:40:29;;;;;;;3.50;2.25;;;17.50;91.40;;;;;;4243840;27;20243;-76
2022/04/10 09:42:32;;;;;;;4.32;2.17;;;17.50;91.20;;;;;;4231610;28;20217;-76
2022/04/10 09:44:36;;;;;;;3.55;1.75;;;17.50;91.10;;;;;;4248196;27;21023;-76
2022/04/10 09:46:38;;;;;;;4.03;2.20;;;17.50;91.10;;;;;;4248299;27;20224;-76
2022/04/10 09:48:40;;;;;;;4.38;2.00;;;17.50;91.20;;;;;;4247662;27;20262;-76
2022/04/10 09:50:44;;;;;;;4.05;1.88;;;17.50;91.00;;;;;;4247604;27;20630;-76
2022/04/10 09:52:46;;;;;;;3.25;1.90;;;17.40;91.00;;;;;;4247576;27;20205;-76
2022/04/10 09:54:50;;;;;;;2.85;1.42;;;17.40;91.10;;;;;;4240728;27;20260;-76
2022/04/10 09:56:55;;;;;;;3.95;1.88;;;17.40;91.60;;;;;;4247447;27;20646;-76
2022/04/10 09:58:59;;;;;;;3.33;1.90;;;17.40;91.20;;;;;;4240150;27;20209;-76
2022/04/10 10:01:04;;;;;;;4.28;2.03;;;17.40;91.50;;;;;;4247659;27;20205;-76
2022/04/10 10:03:08;;;;;;;4.20;2.15;;;17.40;91.30;;;;;;4248023;27;20209;-76
2022/04/10 10:05:10;;;;;;;4.35;2.20;;;17.40;91.50;;;;;;4247792;27;20249;-76
2022/04/10 10:07:15;;;;;;;5.00;1.85;;;17.40;91.10;;;;;;4247039;27;20209;-76
2022/04/10 10:09:19;;;;;;;3.88;1.88;;;17.40;91.30;;;;;;4244094;27;20205;-76
2022/04/10 10:11:22;;;;;;;3.92;1.83;;;17.50;91.30;;;;;;4233570;27;20236;-76
2022/04/10 10:13:27;;;;;;;4.40;1.90;;;17.50;91.10;;;;;;4238156;27;20637;-76
2022/04/10 10:15:29;;;;;;;2.80;1.80;;;17.40;91.00;;;;;;4247170;27;20263;-76
2022/04/10 10:17:31;;;;;;;3.47;1.88;;;17.40;91.10;;;;;;4247615;27;20653;-76
2022/04/10 10:19:35;;;;;;;2.75;1.42;;;17.40;91.10;;;;;;4247713;27;20213;-76
2022/04/10 10:21:38;;;;;;;2.85;1.90;;;17.40;91.10;;;;;;4247766;27;20205;-76
2022/04/10 10:23:48;;;;;;;5.20;2.20;;;17.40;91.20;;;;;;4229085;28;20239;-76
2022/04/10 10:25:59;;;;;;;3.85;1.85;;;17.40;91.10;;;;;;4247516;27;20217;-76
2022/04/10 10:28:43;;;;;;;4.03;1.83;;;17.40;91.10;;;;;;4244322;27;20221;-76
2022/04/10 10:30:57;;;;;;;3.35;1.63;;;17.50;91.40;;;;;;4194545;27;20318;-76
2022/04/10 10:33:14;;;;;;;2.55;1.70;;;17.50;91.10;;;;;;4246988;27;20212;-76
2022/04/10 10:35:30;;;;;;;4.57;1.90;;;17.50;91.10;;;;;;4247233;27;20277;-76
2022/04/10 10:37:49;;;;;;;2.95;2.03;;;17.50;91.10;;;;;;4247423;27;20633;-76
2022/04/10 10:39:52;;;;;;;4.00;1.92;;;17.40;90.90;;;;;;4247072;27;20531;-76
2022/04/10 10:41:55;;;;;;;3.75;1.75;;;17.50;91.00;;;;;;4246791;27;20258;-76
2022/04/10 10:43:59;;;;;;;3.00;1.60;;;17.50;91.00;;;;;;4246691;27;20289;-76
2022/04/10 10:46:02;;;;;;;4.80;1.90;;;17.50;90.90;;;;;;4245051;27;20262;-76
2022/04/10 10:48:34;;;;;;;3.53;1.80;;;17.40;90.80;;;;;;4243296;27;20262;-76